createdAt,value
2022-08-21T00:00:29.837Z,19.94
2022-08-21T00:03:07.044Z,20.06
2022-08-21T00:05:40.326Z,20.06
2022-08-21T00:08:08.907Z,20.13
2022-08-21T00:10:36.878Z,20.06
2022-08-21T00:13:06.020Z,19.94
2022-08-21T00:15:36.535Z,20.19
2022-08-21T00:18:06.552Z,20.06
2022-08-21T00:20:35.791Z,20.13
2022-08-21T00:23:03.866Z,20.06
2022-08-21T00:25:32.154Z,19.88
2022-08-21T00:27:59.674Z,20.00
2022-08-21T00:30:28.349Z,20.06
2022-08-21T00:32:58.803Z,19.81
2022-08-21T00:35:34.228Z,19.81
2022-08-21T00:38:01.679Z,19.63
2022-08-21T00:40:38.334Z,19.81
2022-08-21T00:43:08.958Z,19.81
2022-08-21T00:45:37.006Z,19.81
2022-08-21T00:48:05.312Z,19.63
2022-08-21T00:50:40.552Z,19.69
2022-08-21T00:53:09.333Z,19.75
2022-08-21T00:55:38.438Z,19.94
2022-08-21T00:58:10.159Z,19.88
2022-08-21T01:00:41.985Z,19.88
2022-08-21T01:03:17.551Z,19.88
2022-08-21T01:05:45.604Z,19.63
2022-08-21T01:08:14.409Z,19.81
2022-08-21T01:10:42.389Z,19.88
2022-08-21T01:13:11.989Z,19.81
2022-08-21T01:15:45.040Z,19.94
2022-08-21T01:18:14.359Z,19.88
2022-08-21T01:20:56.967Z,19.88
2022-08-21T01:23:24.753Z,19.75
2022-08-21T01:25:52.181Z,19.88
2022-08-21T01:28:19.748Z,19.88
2022-08-21T01:30:47.134Z,19.81
2022-08-21T01:33:14.568Z,19.94
2022-08-21T01:35:41.981Z,20.00
2022-08-21T01:38:09.886Z,20.00
2022-08-21T01:40:37.241Z,19.88
2022-08-21T01:43:04.819Z,19.94
2022-08-21T01:45:32.599Z,20.00
2022-08-21T01:47:59.885Z,20.00
2022-08-21T01:50:27.387Z,19.94
2022-08-21T01:52:54.811Z,20.00
2022-08-21T01:55:24.124Z,20.06
2022-08-21T01:57:51.537Z,19.94
2022-08-21T02:00:25.990Z,19.81
2022-08-21T02:02:54.162Z,20.00
2022-08-21T02:05:21.635Z,19.94
2022-08-21T02:07:52.868Z,20.00
2022-08-21T02:10:27.530Z,19.94
2022-08-21T02:12:56.857Z,20.00
2022-08-21T02:15:24.958Z,20.00
2022-08-21T02:17:59.706Z,19.94
2022-08-21T02:20:35.499Z,19.81
2022-08-21T02:23:03.144Z,19.88
2022-08-21T02:25:32.067Z,19.81
2022-08-21T02:28:02.952Z,19.88
2022-08-21T02:30:39.015Z,19.88
2022-08-21T02:33:10.485Z,19.69
2022-08-21T02:35:39.989Z,19.94
2022-08-21T02:38:13.314Z,20.00
2022-08-21T02:40:48.061Z,20.00
2022-08-21T02:43:16.838Z,19.94
2022-08-21T02:45:46.193Z,20.00
2022-08-21T02:48:18.460Z,19.94
2022-08-21T02:51:03.926Z,20.06
2022-08-21T02:53:31.939Z,20.06
2022-08-21T02:56:02.216Z,19.81
2022-08-21T02:58:34.301Z,19.75
2022-08-21T03:01:01.723Z,19.81
2022-08-21T03:03:30.473Z,19.81
2022-08-21T03:05:58.140Z,19.63
2022-08-21T03:08:27.750Z,19.88
2022-08-21T03:10:56.012Z,20.00
2022-08-21T03:13:23.522Z,20.00
2022-08-21T03:15:51.772Z,19.94
2022-08-21T03:18:19.803Z,19.88
2022-08-21T03:20:48.290Z,19.81
2022-08-21T03:23:19.031Z,19.81
2022-08-21T03:25:49.422Z,19.88
2022-08-21T03:28:22.646Z,19.94
2022-08-21T03:30:52.899Z,20.00
2022-08-21T03:33:23.139Z,20.00
2022-08-21T03:36:01.680Z,19.94
2022-08-21T03:38:32.297Z,20.13
2022-08-21T03:41:01.078Z,20.13
2022-08-21T03:43:31.216Z,20.06
2022-08-21T03:46:03.142Z,20.13
2022-08-21T03:48:30.821Z,20.06
2022-08-21T03:50:58.178Z,19.94
2022-08-21T03:53:26.255Z,20.06
2022-08-21T03:55:54.271Z,19.94
2022-08-21T03:58:26.504Z,20.06
2022-08-21T04:00:57.570Z,20.19
2022-08-21T04:03:25.968Z,20.19
2022-08-21T04:05:53.380Z,20.06
2022-08-21T04:08:21.086Z,20.00
2022-08-21T04:10:52.459Z,20.13
2022-08-21T04:13:20.184Z,20.06
2022-08-21T04:15:51.077Z,20.00
2022-08-21T04:18:19.010Z,20.00
2022-08-21T04:20:50.728Z,20.00
2022-08-21T04:23:23.724Z,20.00
2022-08-21T04:25:53.382Z,19.88
2022-08-21T04:28:22.454Z,19.94
2022-08-21T04:30:53.140Z,19.94
2022-08-21T04:33:21.931Z,20.00
2022-08-21T04:35:51.348Z,20.00
2022-08-21T04:38:19.777Z,20.00
2022-08-21T04:40:47.461Z,20.00
2022-08-21T04:43:14.850Z,20.13
2022-08-21T04:45:46.477Z,19.94
2022-08-21T04:48:17.104Z,19.88
2022-08-21T04:51:11.586Z,19.81
2022-08-21T04:54:03.818Z,19.81
2022-08-21T04:56:46.584Z,19.88
2022-08-21T04:59:29.762Z,19.94
2022-08-21T05:01:57.751Z,19.88
2022-08-21T05:04:32.069Z,19.81
2022-08-21T05:07:02.541Z,19.88
2022-08-21T05:09:31.219Z,19.63
2022-08-21T05:11:59.469Z,19.81
2022-08-21T05:14:28.315Z,19.88
2022-08-21T05:16:55.609Z,19.94
2022-08-21T05:19:23.179Z,19.75
2022-08-21T05:21:50.534Z,19.88
2022-08-21T05:24:18.873Z,19.88
2022-08-21T05:26:47.098Z,19.88
2022-08-21T05:29:18.249Z,19.94
2022-08-21T05:31:47.640Z,19.94
2022-08-21T05:34:17.128Z,19.94
2022-08-21T05:36:44.769Z,20.00
2022-08-21T05:39:12.720Z,19.75
2022-08-21T05:41:40.374Z,19.81
2022-08-21T05:44:10.123Z,19.88
2022-08-21T05:46:37.770Z,19.94
2022-08-21T05:49:05.107Z,19.94
2022-08-21T05:51:32.758Z,20.06
2022-08-21T05:54:00.086Z,20.00
2022-08-21T05:56:27.415Z,19.75
2022-08-21T05:58:54.727Z,19.69
2022-08-21T06:01:22.081Z,19.75
2022-08-21T06:03:49.444Z,20.00
2022-08-21T06:06:16.819Z,19.88
2022-08-21T06:08:44.621Z,19.81
2022-08-21T06:11:12.035Z,19.94
2022-08-21T06:13:40.121Z,19.88
2022-08-21T06:16:15.876Z,19.94
2022-08-21T06:18:45.289Z,20.06
2022-08-21T06:21:14.699Z,20.13
2022-08-21T06:23:43.027Z,20.19
2022-08-21T06:26:14.046Z,20.00
2022-08-21T06:28:43.394Z,19.94
2022-08-21T06:31:19.806Z,20.00
2022-08-21T06:33:47.795Z,20.13
2022-08-21T06:36:15.672Z,20.13
2022-08-21T06:38:50.860Z,20.06
2022-08-21T06:41:24.359Z,20.13
2022-08-21T06:43:54.852Z,20.00
2022-08-21T06:46:22.868Z,20.06
2022-08-21T06:48:50.510Z,20.06
2022-08-21T06:51:17.812Z,20.06
2022-08-21T06:53:45.147Z,20.06
2022-08-21T06:56:12.581Z,20.06
2022-08-21T06:58:40.102Z,20.00
2022-08-21T07:01:08.772Z,20.06
2022-08-21T07:03:44.192Z,20.13
2022-08-21T07:06:13.223Z,20.13
2022-08-21T07:08:40.967Z,20.13
2022-08-21T07:11:21.442Z,19.94
2022-08-21T07:13:49.487Z,20.00
2022-08-21T07:16:16.788Z,20.06
2022-08-21T07:18:44.158Z,20.13
2022-08-21T07:21:11.541Z,20.06
2022-08-21T07:23:44.127Z,20.13
2022-08-21T07:26:12.517Z,20.19
2022-08-21T07:28:40.290Z,20.19
2022-08-21T07:31:09.495Z,20.06
2022-08-21T07:33:37.884Z,20.06
2022-08-21T07:36:05.619Z,20.25
2022-08-21T07:38:33.065Z,20.00
2022-08-21T07:41:02.813Z,19.94
2022-08-21T07:43:31.141Z,20.06
2022-08-21T07:45:58.468Z,20.19
2022-08-21T07:48:26.080Z,20.19
2022-08-21T07:50:53.418Z,20.38
2022-08-21T07:53:20.703Z,20.25
2022-08-21T07:55:47.931Z,20.25
2022-08-21T07:58:15.186Z,20.25
2022-08-21T08:00:43.112Z,20.19
2022-08-21T08:03:10.672Z,20.25
2022-08-21T08:05:38.688Z,20.25
2022-08-21T08:08:05.960Z,20.19
2022-08-21T08:10:33.547Z,20.19
2022-08-21T08:13:01.170Z,20.19
2022-08-21T08:15:29.401Z,20.38
2022-08-21T08:17:58.164Z,20.13
2022-08-21T08:20:30.207Z,20.25
2022-08-21T08:22:58.668Z,20.25
2022-08-21T08:25:32.829Z,20.31
2022-08-21T08:28:16.334Z,20.25
2022-08-21T08:30:47.029Z,20.19
2022-08-21T08:33:15.453Z,20.19
2022-08-21T08:35:48.614Z,20.13
2022-08-21T08:38:20.933Z,20.25
2022-08-21T08:41:10.001Z,20.00
2022-08-21T08:43:37.469Z,20.19
2022-08-21T08:46:12.290Z,20.13
2022-08-21T08:48:55.458Z,20.06
2022-08-21T08:51:53.130Z,20.13
2022-08-21T08:54:53.139Z,20.06
2022-08-21T08:57:24.599Z,20.06
2022-08-21T08:59:57.168Z,20.13
2022-08-21T09:02:24.985Z,19.94
2022-08-21T09:04:55.135Z,20.13
2022-08-21T09:07:40.926Z,20.25
2022-08-21T09:10:18.033Z,20.25
2022-08-21T09:13:22.654Z,20.13
2022-08-21T09:15:59.454Z,20.19
2022-08-21T09:19:05.566Z,19.94
2022-08-21T09:22:08.364Z,20.19
2022-08-21T09:25:08.936Z,20.31
2022-08-21T09:27:37.579Z,20.13
2022-08-21T09:30:08.390Z,19.94
2022-08-21T09:32:39.514Z,20.06
2022-08-21T09:35:09.558Z,20.31
2022-08-21T09:38:06.212Z,20.31
2022-08-21T09:40:43.868Z,20.19
2022-08-21T09:45:43.366Z,20.31
2022-08-21T09:48:27.047Z,20.25
2022-08-21T09:51:14.826Z,20.31
2022-08-21T09:53:53.018Z,20.25
2022-08-21T09:56:47.147Z,20.31
2022-08-21T09:59:26.930Z,20.13
2022-08-21T10:01:55.663Z,20.13
2022-08-21T10:04:49.987Z,19.94
2022-08-21T10:07:24.400Z,20.06
2022-08-21T10:10:08.721Z,20.00
2022-08-21T10:13:15.065Z,20.00
2022-08-21T10:16:06.847Z,20.06
2022-08-21T10:18:44.225Z,20.06
2022-08-21T10:21:32.776Z,20.19
2022-08-21T10:24:45.154Z,20.00
2022-08-21T10:27:51.081Z,20.06
2022-08-21T10:30:42.693Z,19.81
2022-08-21T10:33:17.483Z,19.75
2022-08-21T10:36:16.864Z,19.81
2022-08-21T10:39:23.358Z,19.81
2022-08-21T10:42:12.497Z,20.00
2022-08-21T10:44:51.610Z,19.88
2022-08-21T10:47:36.669Z,19.94
2022-08-21T10:50:41.715Z,19.75
2022-08-21T10:53:20.548Z,19.81
2022-08-21T10:56:17.237Z,19.81
2022-08-21T10:59:17.255Z,19.81
2022-08-21T11:02:12.973Z,19.81
2022-08-21T11:05:06.999Z,19.75
2022-08-21T11:07:45.219Z,19.63
2022-08-21T11:10:27.159Z,19.69
2022-08-21T11:13:08.179Z,19.81
2022-08-21T11:16:00.385Z,19.81
2022-08-21T11:18:46.099Z,19.88
2022-08-21T11:21:48.467Z,19.75
2022-08-21T11:24:34.674Z,19.69
2022-08-21T11:27:11.973Z,19.69
2022-08-21T11:29:47.255Z,19.75
2022-08-21T11:33:01.399Z,19.75
2022-08-21T11:35:52.187Z,19.94
2022-08-21T11:38:38.933Z,19.94
2022-08-21T11:41:54.866Z,20.00
2022-08-21T11:45:13.790Z,19.94
2022-08-21T11:48:08.238Z,20.19
2022-08-21T11:50:37.954Z,20.06
2022-08-21T11:53:20.867Z,19.94
2022-08-21T11:56:08.476Z,19.88
2022-08-21T11:58:46.892Z,19.63
2022-08-21T12:01:29.639Z,19.75
2022-08-21T12:04:09.043Z,19.94
2022-08-21T12:06:42.029Z,20.06
2022-08-21T12:09:24.506Z,20.19
2022-08-21T12:12:32.647Z,20.25
2022-08-21T12:15:29.895Z,20.00
2022-08-21T12:18:23.744Z,20.13
2022-08-21T12:21:25.159Z,20.06
2022-08-21T12:24:41.284Z,20.06
2022-08-21T12:27:26.781Z,20.19
2022-08-21T12:30:28.862Z,20.06
2022-08-21T12:33:07.257Z,20.06
2022-08-21T12:35:41.327Z,20.00
2022-08-21T12:38:18.686Z,20.13
2022-08-21T12:40:49.126Z,20.19
2022-08-21T12:43:44.927Z,20.25
2022-08-21T12:46:31.031Z,20.31
2022-08-21T12:49:07.437Z,20.19
2022-08-21T12:51:58.046Z,20.06
2022-08-21T12:54:32.861Z,19.94
2022-08-21T12:57:07.006Z,19.75
2022-08-21T12:59:39.352Z,19.56
2022-08-21T13:02:19.768Z,19.56
2022-08-21T13:04:49.559Z,19.44
2022-08-21T13:07:27.024Z,19.38
2022-08-21T13:10:04.283Z,19.06
2022-08-21T13:12:32.953Z,19.13
2022-08-21T13:15:05.762Z,19.13
2022-08-21T13:17:41.245Z,19.13
2022-08-21T13:20:25.456Z,19.00
2022-08-21T13:22:53.324Z,19.13
2022-08-21T13:25:28.580Z,19.13
2022-08-21T13:28:10.348Z,19.13
2022-08-21T13:30:45.784Z,18.88
2022-08-21T13:33:17.460Z,18.81
2022-08-21T13:35:56.987Z,18.88
2022-08-21T13:38:31.902Z,18.81
2022-08-21T13:41:29.749Z,18.88
2022-08-21T13:44:04.824Z,18.94
2022-08-21T13:46:37.585Z,18.88
2022-08-21T13:49:07.973Z,18.81
2022-08-21T13:51:36.782Z,18.69
2022-08-21T13:54:31.427Z,18.63
2022-08-21T13:56:58.677Z,18.63
2022-08-21T13:59:37.518Z,18.69
2022-08-21T14:02:22.432Z,18.50
2022-08-21T14:05:02.744Z,18.81
2022-08-21T14:07:42.077Z,18.81
2022-08-21T14:10:18.947Z,18.69
2022-08-21T14:13:06.772Z,18.50
2022-08-21T14:15:36.581Z,18.69
2022-08-21T14:18:18.344Z,18.44
2022-08-21T14:20:46.799Z,18.38
2022-08-21T14:23:26.605Z,18.63
2022-08-21T14:25:54.510Z,18.50
2022-08-21T14:28:31.037Z,18.44
2022-08-21T14:30:58.869Z,18.44
2022-08-21T14:33:34.584Z,18.50
2022-08-21T14:36:03.057Z,18.50
2022-08-21T14:38:30.526Z,18.44
2022-08-21T14:41:16.869Z,18.44
2022-08-21T14:43:46.597Z,18.38
2022-08-21T14:46:25.283Z,18.50
2022-08-21T14:48:52.883Z,18.38
2022-08-21T14:51:20.198Z,18.44
2022-08-21T14:53:48.547Z,18.50
2022-08-21T14:56:17.049Z,18.50
2022-08-21T14:58:49.649Z,18.69
2022-08-21T15:01:20.680Z,18.50
2022-08-21T15:03:49.554Z,18.38
2022-08-21T15:06:22.571Z,18.38
2022-08-21T15:08:49.963Z,18.31
2022-08-21T15:11:41.713Z,18.13
2022-08-21T15:14:19.608Z,18.06
2022-08-21T15:16:47.069Z,18.19
2022-08-21T15:19:14.478Z,18.19
2022-08-21T15:21:41.860Z,17.88
2022-08-21T15:24:09.257Z,17.94
2022-08-21T15:26:37.838Z,18.00
2022-08-21T15:29:08.351Z,18.00
2022-08-21T15:31:36.553Z,18.00
2022-08-21T15:34:04.436Z,18.19
2022-08-21T15:36:31.747Z,17.94
2022-08-21T15:38:58.980Z,17.88
2022-08-21T15:41:26.441Z,17.81
2022-08-21T15:43:54.947Z,17.88
2022-08-21T15:46:23.111Z,17.81
2022-08-21T15:48:50.400Z,18.00
2022-08-21T15:51:18.963Z,17.94
2022-08-21T15:53:47.565Z,18.06
2022-08-21T15:56:38.489Z,17.75
2022-08-21T15:59:10.627Z,18.00
2022-08-21T16:01:44.725Z,17.94
2022-08-21T16:04:22.573Z,18.00
2022-08-21T16:06:55.389Z,17.94
2022-08-21T16:09:24.953Z,17.69
2022-08-21T16:11:52.767Z,17.69
2022-08-21T16:14:20.169Z,17.75
2022-08-21T16:16:47.650Z,17.63
2022-08-21T16:19:15.682Z,17.56
2022-08-21T16:21:43.089Z,17.69
2022-08-21T16:24:10.405Z,17.88
2022-08-21T16:26:37.914Z,17.75
2022-08-21T16:29:07.381Z,18.06
2022-08-21T16:31:35.198Z,17.88
2022-08-21T16:34:03.413Z,17.88
2022-08-21T16:36:31.038Z,18.06
2022-08-21T16:39:05.521Z,18.06
2022-08-21T16:41:36.082Z,18.06
2022-08-21T16:44:05.134Z,18.00
2022-08-21T16:46:38.164Z,18.00
2022-08-21T16:49:05.559Z,17.88
2022-08-21T16:51:33.499Z,17.88
2022-08-21T16:54:01.512Z,17.81
2022-08-21T16:56:29.681Z,18.00
2022-08-21T16:58:58.903Z,17.88
2022-08-21T17:01:31.287Z,17.75
2022-08-21T17:03:58.746Z,17.69
2022-08-21T17:06:28.990Z,17.69
2022-08-21T17:08:57.226Z,17.75
2022-08-21T17:11:38.564Z,17.69
2022-08-21T17:14:18.112Z,17.56
2022-08-21T17:16:50.028Z,17.56
2022-08-21T17:19:18.858Z,17.56
2022-08-21T17:21:46.372Z,17.69
2022-08-21T17:24:15.735Z,17.63
2022-08-21T17:26:45.091Z,17.69
2022-08-21T17:29:16.096Z,17.75
2022-08-21T17:31:45.025Z,17.69
2022-08-21T17:34:14.832Z,17.50
2022-08-21T17:36:54.603Z,17.56
2022-08-21T17:39:22.453Z,17.50
2022-08-21T17:41:57.758Z,17.63
2022-08-21T17:44:25.978Z,17.75
2022-08-21T17:46:53.706Z,17.56
2022-08-21T17:49:21.140Z,17.44
2022-08-21T17:51:48.502Z,17.69
2022-08-21T17:54:15.767Z,17.44
2022-08-21T17:56:43.891Z,17.38
2022-08-21T17:59:12.120Z,17.56
2022-08-21T18:01:43.201Z,17.56
2022-08-21T18:04:12.107Z,17.25
2022-08-21T18:06:40.551Z,17.44
2022-08-21T18:09:08.837Z,17.44
2022-08-21T18:11:37.771Z,17.50
2022-08-21T18:14:07.787Z,17.69
2022-08-21T18:16:37.963Z,17.63
2022-08-21T18:19:10.503Z,17.31
2022-08-21T18:21:38.617Z,17.44
2022-08-21T18:24:06.242Z,17.38
2022-08-21T18:26:38.258Z,17.56
2022-08-21T18:29:10.520Z,17.38
2022-08-21T18:31:40.429Z,17.56
2022-08-21T18:34:23.958Z,17.38
2022-08-21T18:36:53.162Z,17.38
2022-08-21T18:39:38.047Z,17.50
2022-08-21T18:42:12.208Z,17.63
2022-08-21T18:44:40.676Z,17.38
2022-08-21T18:47:16.261Z,17.38
2022-08-21T18:49:43.775Z,17.38
2022-08-21T18:52:16.123Z,17.25
2022-08-21T18:54:49.830Z,17.25
2022-08-21T18:57:39.995Z,17.06
2022-08-21T19:03:01.087Z,17.06
2022-08-21T19:05:29.319Z,17.13
2022-08-21T19:11:03.152Z,17.25
2022-08-21T19:13:33.433Z,17.13
2022-08-21T19:16:04.085Z,17.06
2022-08-21T19:18:38.022Z,17.00
2022-08-21T19:21:07.597Z,16.94
2022-08-21T19:23:35.556Z,16.88
2022-08-21T19:26:06.443Z,16.88
2022-08-21T19:28:44.761Z,17.06
2022-08-21T19:37:36.970Z,17.13
2022-08-21T19:40:08.252Z,17.25
2022-08-21T19:42:36.745Z,17.13
2022-08-21T19:45:06.581Z,17.25
2022-08-21T19:47:33.840Z,17.13
2022-08-21T19:50:17.453Z,16.88
2022-08-21T19:52:52.984Z,17.00
2022-08-21T19:55:23.344Z,16.94
2022-08-21T19:57:50.810Z,16.94
2022-08-21T20:00:18.202Z,17.06
2022-08-21T20:05:39.558Z,17.00
2022-08-21T20:08:11.789Z,17.13
2022-08-21T20:13:36.117Z,17.00
2022-08-21T20:16:08.480Z,16.94
2022-08-21T20:18:38.459Z,17.00
2022-08-21T20:21:13.276Z,17.19
2022-08-21T20:23:48.820Z,17.00
2022-08-21T20:26:17.632Z,17.00
2022-08-21T20:28:46.280Z,17.06
2022-08-21T20:31:19.624Z,17.25
2022-08-21T20:33:49.646Z,17.19
2022-08-21T20:36:18.197Z,17.13
2022-08-21T20:38:48.208Z,17.25
2022-08-21T20:41:17.911Z,17.31
2022-08-21T20:43:50.710Z,17.25
2022-08-21T20:46:23.958Z,17.00
2022-08-21T20:48:52.226Z,16.94
2022-08-21T20:51:33.359Z,16.94
2022-08-21T20:54:34.505Z,16.94
2022-08-21T20:57:22.787Z,16.81
2022-08-21T21:00:01.797Z,16.94
2022-08-21T21:03:00.324Z,16.88
2022-08-21T21:05:44.420Z,16.88
2022-08-21T21:08:39.441Z,17.06
2022-08-21T21:11:20.155Z,17.00
2022-08-21T21:14:04.891Z,17.13
2022-08-21T21:16:50.738Z,17.19
2022-08-21T21:19:36.932Z,17.13
2022-08-21T21:22:25.827Z,16.88
2022-08-21T21:25:15.387Z,17.00
2022-08-21T21:27:55.805Z,17.13
2022-08-21T21:30:38.102Z,17.00
2022-08-21T21:33:05.457Z,17.00
2022-08-21T21:36:00.209Z,17.19
2022-08-21T21:38:52.936Z,17.06
2022-08-21T21:41:25.961Z,16.88
2022-08-21T21:44:08.042Z,17.13
2022-08-21T21:47:03.018Z,17.13
2022-08-21T21:50:19.074Z,17.13
2022-08-21T21:53:17.047Z,16.94
2022-08-21T21:56:29.095Z,17.00
2022-08-21T21:59:08.288Z,16.75
2022-08-21T22:01:39.765Z,16.75
2022-08-21T22:04:46.892Z,16.69
2022-08-21T22:07:43.996Z,16.63
2022-08-21T22:10:30.579Z,16.69
2022-08-21T22:13:26.896Z,16.94
2022-08-21T22:15:55.666Z,16.75
2022-08-21T22:18:45.206Z,16.81
2022-08-21T22:21:25.210Z,16.56
2022-08-21T22:24:00.801Z,16.56
2022-08-21T22:26:44.190Z,16.56
2022-08-21T22:29:18.939Z,16.56
2022-08-21T22:32:04.935Z,16.50
2022-08-21T22:34:32.782Z,16.63
2022-08-21T22:37:10.135Z,16.44
2022-08-21T22:39:46.106Z,16.56
2022-08-21T22:42:27.508Z,16.50
2022-08-21T22:45:01.961Z,16.75
2022-08-21T22:47:43.073Z,16.63
2022-08-21T22:50:26.290Z,16.50
2022-08-21T22:53:08.229Z,16.56
2022-08-21T22:55:46.030Z,16.50
2022-08-21T22:58:43.931Z,16.56
2022-08-21T23:01:33.488Z,16.81
2022-08-21T23:04:18.564Z,16.63
2022-08-21T23:06:58.249Z,16.63
2022-08-21T23:09:32.117Z,16.44
2022-08-21T23:18:17.573Z,16.56
2022-08-21T23:27:44.376Z,16.50
2022-08-21T23:30:19.063Z,16.50
2022-08-21T23:33:21.634Z,16.94
2022-08-21T23:36:32.423Z,16.88
2022-08-21T23:39:25.378Z,16.88
2022-08-21T23:42:07.791Z,16.88
2022-08-21T23:45:14.058Z,16.94
2022-08-21T23:48:09.887Z,16.63
2022-08-21T23:50:51.890Z,16.69
